Time;durP1;ratioP1;P1;durP2;ratioP2;P2;SDS_P1;SDS_P2;PMS_P1;PMS_P2;Temp;Humidity;BMP_temperature;BMP_pressure;BME280_temperature;BME280_humidity;BME280_pressure;Samples;Min_cycle;Max_cycle;Signal;HPM_P1;HPM_P2
2022/12/29 00:01:31;;;;;;;36.93;3.40;;;;;;;19.10;66.11;98813.81;7311305;19;129010;-65
2022/12/29 00:03:56;;;;;;;23.48;2.53;;;;;;;19.11;66.50;98812.84;7315895;19;129504;-67
2022/12/29 00:06:22;;;;;;;34.92;4.03;;;;;;;19.08;65.99;98800.09;7312287;19;129714;-67
2022/12/29 00:08:47;;;;;;;11.73;1.25;;;;;;;18.97;65.26;98807.28;7313491;19;132719;-65
2022/12/29 00:11:16;;;;;;;54.05;5.53;;;;;;;18.93;64.61;98809.34;7312771;19;129412;-66
2022/12/29 00:16:26;;;;;;;53.78;5.82;;;;;;;18.93;64.77;98804.13;7313384;19;129048;-66
2022/12/29 00:18:51;;;;;;;18.00;1.75;;;;;;;18.93;64.42;98798.09;7314616;19;129659;-65
2022/12/29 00:35:13;;;;;;;39.40;4.03;;;;;;;19.15;63.34;98762.09;7311178;19;129385;-67
2022/12/29 00:45:54;;;;;;;30.42;2.97;;;;;;;19.03;64.99;98775.44;7313073;19;129493;-66
2022/12/29 00:49:29;;;;;;;14.30;1.42;;;;;;;19.03;64.37;98772.84;7314399;19;129513;-66
2022/12/29 00:51:05;;;;;;;14.02;1.67;;;;;;;18.99;65.07;98768.91;7312393;19;130327;-68
2022/12/29 00:53:30;;;;;;;17.73;1.77;;;;;;;18.97;64.75;98753.38;7314006;19;129099;-67
2022/12/29 00:55:56;;;;;;;36.03;3.30;;;;;;;18.99;64.44;98761.09;7312479;19;129051;-64
2022/12/29 00:58:21;;;;;;;28.85;2.75;;;;;;;18.95;65.14;98764.91;7313789;19;129098;-66
2022/12/29 01:00:46;;;;;;;17.83;1.70;;;;;;;18.96;64.99;98756.97;7312952;19;129660;-68
2022/12/29 01:03:12;;;;;;;13.63;1.48;;;;;;;18.95;66.08;98760.53;7314094;19;128983;-64
2022/12/29 01:05:37;;;;;;;37.72;3.35;;;;;;;18.94;65.72;98763.28;7313021;19;129665;-65
2022/12/29 01:08:03;;;;;;;12.63;1.50;;;;;;;18.85;65.47;98749.34;7314068;19;129088;-64
2022/12/29 01:10:28;;;;;;;18.10;1.85;;;;;;;18.93;66.48;98765.06;7313053;19;130785;-65
2022/12/29 01:12:54;;;;;;;8.00;0.90;;;;;;;18.96;66.47;98766.56;7311750;19;130281;-66
2022/12/29 01:15:20;;;;;;;33.72;2.92;;;;;;;18.99;66.89;98772.31;7313417;19;129382;-68
2022/12/29 01:17:45;;;;;;;15.65;1.63;;;;;;;19.04;66.36;98774.50;7313818;19;129012;-66
2022/12/29 01:20:11;;;;;;;19.88;2.08;;;;;;;18.95;66.28;98752.72;7312177;19;129144;-68
2022/12/29 01:22:36;;;;;;;19.45;2.00;;;;;;;19.05;66.24;98761.31;7311235;19;129265;-67
2022/12/29 01:25:03;;;;;;;70.28;6.78;;;;;;;18.97;66.21;98753.38;7311832;19;130154;-67
2022/12/29 01:27:28;;;;;;;11.02;1.23;;;;;;;19.07;66.35;98769.78;7313285;19;130859;-64
2022/12/29 01:29:54;;;;;;;17.77;2.28;;;;;;;19.02;65.48;98774.59;7312387;19;129569;-66
2022/12/29 01:32:19;;;;;;;25.73;2.38;;;;;;;19.04;66.01;98764.88;7309113;19;129404;-68
2022/12/29 01:34:44;;;;;;;15.50;1.55;;;;;;;19.03;66.42;98768.47;7313054;19;129190;-66
2022/12/29 01:37:10;;;;;;;17.88;1.80;;;;;;;19.05;66.45;98766.53;7310637;19;129416;-64
2022/12/29 01:39:35;;;;;;;11.95;1.33;;;;;;;19.08;66.37;98765.41;7311759;19;129664;-66
2022/12/29 01:42:01;;;;;;;29.65;3.05;;;;;;;19.07;66.31;98769.00;7309865;19;128950;-67
2022/12/29 01:44:51;;;;;;;18.25;2.00;;;;;;;19.08;66.94;98760.22;7312347;19;129691;-65
2022/12/29 01:47:51;;;;;;;11.80;1.35;;;;;;;19.04;67.34;98754.47;7309485;19;131803;-66
2022/12/29 01:50:26;;;;;;;35.50;3.17;;;;;;;19.06;66.36;98757.75;7308689;19;129270;-66
2022/12/29 01:53:18;;;;;;;22.10;2.20;;;;;;;19.05;66.75;98747.47;7310390;19;129575;-66
2022/12/29 01:55:52;;;;;;;22.80;2.38;;;;;;;19.05;66.87;98742.25;7312068;19;129725;-66
2022/12/29 01:58:20;;;;;;;15.85;1.60;;;;;;;19.04;66.81;98749.25;7311215;19;129901;-65
2022/12/29 02:00:45;;;;;;;14.63;1.42;;;;;;;19.03;66.22;98742.41;7310785;19;129385;-65
2022/12/29 02:03:11;;;;;;;16.95;1.45;;;;;;;19.03;66.18;98738.97;7311612;19;128954;-67
2022/12/29 02:05:53;;;;;;;37.60;3.00;;;;;;;19.00;66.69;98742.69;7312527;19;128853;-67
2022/12/29 02:08:22;;;;;;;40.28;3.50;;;;;;;18.88;66.31;98741.22;7311280;19;129358;-66
2022/12/29 02:10:48;;;;;;;18.65;1.60;;;;;;;18.87;64.94;98742.22;7311431;19;129635;-66
2022/12/29 02:13:17;;;;;;;7.10;0.75;;;;;;;18.82;66.64;98734.00;7311687;19;129145;-67
2022/12/29 02:15:51;;;;;;;17.48;1.50;;;;;;;18.80;65.64;98735.94;7310936;19;129759;-66
2022/12/29 02:18:54;;;;;;;41.53;3.53;;;;;;;18.83;66.82;98729.59;7310404;19;129533;-66
2022/12/29 02:22:16;;;;;;;15.15;1.50;;;;;;;18.82;65.28;98721.00;7307779;19;129369;-66
2022/12/29 02:24:59;;;;;;;13.57;1.30;;;;;;;18.88;66.18;98728.22;7308506;19;129152;-67
2022/12/29 02:27:50;;;;;;;8.63;1.02;;;;;;;18.94;64.86;98717.22;7306985;19;129260;-65
2022/12/29 02:30:39;;;;;;;12.70;1.42;;;;;;;18.99;64.60;98720.19;7309537;19;130078;-66
2022/12/29 02:33:14;;;;;;;19.60;1.90;;;;;;;19.00;63.53;98721.88;7308217;19;129418;-65
2022/12/29 02:36:19;;;;;;;14.20;1.35;;;;;;;19.02;64.32;98722.50;7309809;19;129546;-66
2022/12/29 02:38:47;;;;;;;16.63;1.52;;;;;;;18.99;64.43;98720.19;7311952;19;129589;-66
2022/12/29 02:41:41;;;;;;;12.15;1.27;;;;;;;18.96;64.02;98719.66;7308858;19;129723;-65
2022/12/29 02:44:25;;;;;;;13.75;1.30;;;;;;;18.96;64.53;98720.50;7306224;19;129878;-67
2022/12/29 02:47:03;;;;;;;15.13;1.48;;;;;;;18.92;64.66;98713.97;7309149;19;128885;-67
2022/12/29 02:49:36;;;;;;;8.23;1.10;;;;;;;18.92;65.03;98719.16;7310596;19;129124;-67
2022/12/29 02:52:11;;;;;;;22.38;2.40;;;;;;;18.91;65.91;98722.72;7307431;19;129529;-64
2022/12/29 02:54:43;;;;;;;30.63;2.78;;;;;;;18.92;65.32;98719.16;7308776;19;132773;-66
2022/12/29 02:57:14;;;;;;;26.48;2.40;;;;;;;18.87;65.79;98705.75;7310173;19;128826;-66
2022/12/29 02:59:41;;;;;;;14.23;1.35;;;;;;;18.89;65.26;98719.44;7317617;19;130009;-64
2022/12/29 03:02:18;;;;;;;14.35;1.65;;;;;;;18.87;66.04;98716.16;7314542;19;131005;-65
2022/12/29 03:05:04;;;;;;;15.43;1.53;;;;;;;18.93;67.29;98712.97;7318197;19;129687;-65
2022/12/29 03:08:07;;;;;;;23.73;2.13;;;;;;;18.92;66.50;98718.34;7315940;19;129551;-67
2022/12/29 03:10:35;;;;;;;22.77;2.15;;;;;;;18.93;66.92;98710.38;7314326;19;131272;-64
2022/12/29 03:16:25;;;;;;;25.38;2.83;;;;;;;18.94;67.27;98704.19;7314893;19;129677;-65
2022/12/29 03:19:05;;;;;;;12.57;1.47;;;;;;;18.90;66.94;98682.03;7316667;19;129121;-67
2022/12/29 03:24:34;;;;;;;19.27;2.08;;;;;;;19.01;66.14;98697.44;7316609;19;128941;-67
2022/12/29 03:27:02;;;;;;;16.08;1.85;;;;;;;19.00;66.14;98693.22;7314203;19;129735;-66
2022/12/29 03:29:32;;;;;;;32.15;3.22;;;;;;;18.97;65.70;98690.88;7314313;19;128946;-66
2022/12/29 03:31:59;;;;;;;20.33;2.08;;;;;;;18.99;66.06;98690.75;7313990;19;129919;-67
2022/12/29 03:34:25;;;;;;;16.58;1.85;;;;;;;18.97;65.93;98682.25;7316600;19;129209;-65
2022/12/29 03:36:57;;;;;;;17.38;1.73;;;;;;;18.87;66.46;98658.88;7314531;19;129190;-65
2022/12/29 03:39:24;;;;;;;23.48;2.25;;;;;;;18.98;66.33;98682.13;7315673;19;129003;-67
2022/12/29 03:41:55;;;;;;;35.15;2.90;;;;;;;18.96;66.84;98684.03;7313995;19;129618;-68
2022/12/29 03:44:21;;;;;;;16.15;1.58;;;;;;;19.00;66.53;98679.34;7317011;19;129462;-67
2022/12/29 03:46:46;;;;;;;17.67;1.67;;;;;;;19.01;66.74;98676.59;7313913;19;132248;-65
2022/12/29 03:49:11;;;;;;;26.05;2.50;;;;;;;19.02;66.85;98670.41;7316138;19;129109;-67
2022/12/29 03:51:37;;;;;;;32.30;2.83;;;;;;;19.03;66.01;98663.44;7314328;19;130815;-67
2022/12/29 03:54:02;;;;;;;10.00;1.20;;;;;;;18.99;67.00;98652.47;7316159;19;129061;-66
2022/12/29 03:56:28;;;;;;;20.98;2.17;;;;;;;18.99;66.83;98652.47;7313354;19;129202;-65
2022/12/29 03:58:54;;;;;;;20.17;2.08;;;;;;;18.99;66.54;98652.47;7315227;19;129124;-66
2022/12/29 04:01:19;;;;;;;26.30;2.38;;;;;;;19.01;66.66;98647.97;7314619;19;130231;-66
2022/12/29 04:03:44;;;;;;;8.07;0.85;;;;;;;18.98;66.33;98647.44;7315466;19;129445;-66
2022/12/29 04:06:09;;;;;;;15.50;1.38;;;;;;;18.94;66.02;98654.72;7311879;19;131957;-66
2022/12/29 04:08:35;;;;;;;29.55;2.63;;;;;;;18.91;66.35;98644.59;7313333;19;128897;-66
2022/12/29 04:11:00;;;;;;;24.75;2.40;;;;;;;18.75;66.53;98623.56;7310537;19;129183;-65
2022/12/29 04:13:26;;;;;;;15.88;1.90;;;;;;;18.86;66.90;98654.63;7314561;19;129493;-68
2022/12/29 04:15:51;;;;;;;20.55;2.17;;;;;;;18.84;66.70;98653.94;7313398;19;129068;-65
2022/12/29 04:18:16;;;;;;;44.42;3.50;;;;;;;18.82;66.68;98661.09;7314667;19;129023;-67
2022/12/29 04:21:00;;;;;;;14.13;1.27;;;;;;;18.77;66.47;98663.31;7313480;19;129909;-66
2022/12/29 04:23:27;;;;;;;19.75;1.95;;;;;;;18.79;67.05;98650.94;7315601;19;129425;-65
2022/12/29 04:25:52;;;;;;;24.65;2.60;;;;;;;18.73;66.77;98651.53;7312478;19;129254;-65
2022/12/29 04:28:18;;;;;;;16.30;1.63;;;;;;;18.73;66.89;98654.13;7315041;19;129005;-66
2022/12/29 04:30:44;;;;;;;29.80;2.75;;;;;;;18.72;66.49;98655.09;7313681;19;129318;-64
2022/12/29 04:33:09;;;;;;;16.05;1.63;;;;;;;18.69;67.06;98663.19;7313821;19;129800;-67
2022/12/29 04:35:34;;;;;;;12.80;1.20;;;;;;;18.69;66.90;98657.97;7312544;19;129151;-65
2022/12/29 04:38:00;;;;;;;26.88;2.55;;;;;;;18.73;67.04;98661.94;7314650;19;129093;-66
2022/12/29 04:40:25;;;;;;;34.63;3.40;;;;;;;18.71;67.46;98669.06;7312191;19;130080;-66
2022/12/29 04:42:51;;;;;;;20.02;2.03;;;;;;;18.74;66.62;98660.97;7313716;19;130342;-68
2022/12/29 04:45:17;;;;;;;17.27;1.88;;;;;;;18.73;66.27;98667.16;7312946;19;129475;-67
2022/12/29 04:47:42;;;;;;;28.73;2.65;;;;;;;18.74;66.84;98658.38;7313095;19;129034;-67
2022/12/29 04:50:08;;;;;;;26.65;2.72;;;;;;;18.61;65.69;98657.88;7313763;19;129317;-66
2022/12/29 04:52:33;;;;;;;19.05;2.20;;;;;;;18.63;66.19;98663.75;7310413;19;129280;-65
2022/12/29 04:54:58;;;;;;;53.65;6.03;;;;;;;18.66;66.51;98666.06;7310457;19;131997;-66
2022/12/29 04:57:24;;;;;;;36.65;3.35;;;;;;;18.65;66.36;98668.81;7313357;19;129259;-65
2022/12/29 04:59:49;;;;;;;8.98;1.05;;;;;;;18.67;65.04;98667.75;7313998;19;129307;-67
2022/12/29 05:02:16;;;;;;;14.18;1.38;;;;;;;18.70;64.69;98662.25;7310702;19;129197;-66
2022/12/29 05:04:41;;;;;;;17.38;1.85;;;;;;;18.72;65.48;98670.72;7313123;19;129372;-64
2022/12/29 05:07:07;;;;;;;24.70;2.38;;;;;;;18.78;64.13;98669.31;7309915;19;129526;-64
2022/12/29 05:09:33;;;;;;;18.45;2.17;;;;;;;18.80;64.65;98670.81;7313844;19;128955;-67
2022/12/29 05:11:58;;;;;;;16.40;1.75;;;;;;;18.75;64.32;98654.81;7310796;19;129189;-66
2022/12/29 05:14:24;;;;;;;15.98;1.67;;;;;;;18.88;64.11;98681.34;7310696;19;131957;-65
2022/12/29 05:16:49;;;;;;;37.42;3.33;;;;;;;18.75;64.54;98654.81;7310027;19;130462;-67
2022/12/29 05:19:14;;;;;;;14.25;1.40;;;;;;;18.85;64.78;98686.84;7313571;19;129128;-65
2022/12/29 05:21:40;;;;;;;21.63;2.03;;;;;;;18.85;64.70;98676.44;7309411;19;129399;-68
2022/12/29 05:24:05;;;;;;;24.08;2.35;;;;;;;18.81;64.34;98669.03;7312540;19;129434;-67
2022/12/29 05:26:30;;;;;;;39.58;2.88;;;;;;;18.80;64.84;98656.97;7311748;19;129327;-67
2022/12/29 05:28:56;;;;;;;22.98;2.45;;;;;;;18.78;64.81;98670.16;7313896;19;129972;-65
2022/12/29 05:31:21;;;;;;;12.93;1.50;;;;;;;18.76;65.27;98682.47;7310872;19;129064;-68
2022/12/29 05:33:46;;;;;;;27.88;2.28;;;;;;;18.76;65.48;98681.69;7312399;19;129552;-67
2022/12/29 05:36:12;;;;;;;23.10;2.00;;;;;;;18.63;65.05;98671.56;7310139;19;129151;-67
2022/12/29 05:38:38;;;;;;;21.08;2.08;;;;;;;18.79;65.30;98674.38;7312093;19;129342;-64
2022/12/29 05:41:03;;;;;;;18.40;1.88;;;;;;;18.78;65.61;98682.34;7311074;19;129885;-67
2022/12/29 05:43:28;;;;;;;37.13;3.22;;;;;;;18.79;65.95;98681.38;7311919;19;129700;-66
2022/12/29 05:45:55;;;;;;;20.85;2.55;;;;;;;18.79;66.45;98681.38;7311344;19;129221;-65
2022/12/29 05:48:20;;;;;;;22.40;2.20;;;;;;;18.83;67.05;98677.53;7311397;19;129520;-66
2022/12/29 05:50:50;;;;;;;23.10;2.28;;;;;;;18.87;67.36;98673.66;7306144;19;131858;-65
2022/12/29 05:53:16;;;;;;;41.38;3.42;;;;;;;18.88;66.06;98670.91;7309349;19;129425;-64
2022/12/29 05:55:43;;;;;;;14.20;1.70;;;;;;;18.78;66.21;98654.53;7312112;19;129874;-65
2022/12/29 05:58:09;;;;;;;13.82;1.27;;;;;;;18.89;66.32;98671.75;7312401;19;128854;-65
2022/12/29 06:00:34;;;;;;;13.43;1.30;;;;;;;18.93;66.51;98671.31;7310949;19;129157;-67
2022/12/29 06:02:59;;;;;;;41.88;3.78;;;;;;;18.81;66.37;98659.44;7310905;19;129253;-66
2022/12/29 06:05:25;;;;;;;20.38;1.95;;;;;;;18.81;66.03;98659.44;7309383;19;128973;-65
2022/12/29 06:07:50;;;;;;;21.15;2.17;;;;;;;18.95;65.73;98677.19;7310906;19;129311;-64
2022/12/29 06:10:16;;;;;;;14.32;1.35;;;;;;;18.96;66.56;98689.25;7311059;19;129043;-66
2022/12/29 06:12:41;;;;;;;27.90;2.55;;;;;;;18.96;65.88;98684.03;7309614;19;130553;-67
2022/12/29 06:15:07;;;;;;;29.35;3.42;;;;;;;18.96;66.18;98671.00;7311726;19;129825;-65
2022/12/29 06:17:32;;;;;;;26.77;2.63;;;;;;;18.84;66.10;98651.31;7311923;19;129849;-67
2022/12/29 06:19:58;;;;;;;26.05;2.28;;;;;;;18.94;66.06;98664.31;7310582;19;129466;-64
2022/12/29 06:22:24;;;;;;;38.35;3.70;;;;;;;18.82;66.22;98640.25;7308017;19;129534;-66
2022/12/29 06:24:49;;;;;;;18.90;1.85;;;;;;;18.90;66.68;98658.59;7311703;19;129411;-66
2022/12/29 06:27:14;;;;;;;15.73;1.52;;;;;;;18.94;66.84;98657.31;7310581;19;129528;-65
2022/12/29 06:29:40;;;;;;;21.35;2.03;;;;;;;18.94;66.31;98659.91;7310872;19;129330;-66
2022/12/29 06:32:06;;;;;;;38.33;3.53;;;;;;;18.93;66.68;98663.50;7306673;19;129152;-64
2022/12/29 06:34:31;;;;;;;20.67;2.13;;;;;;;18.93;66.29;98663.50;7311724;19;129184;-65
2022/12/29 06:36:57;;;;;;;23.95;2.63;;;;;;;18.89;65.97;98656.13;7309113;19;130848;-66
2022/12/29 06:39:22;;;;;;;28.42;2.78;;;;;;;18.90;66.68;98653.38;7311414;19;129028;-68
2022/12/29 06:41:48;;;;;;;10.63;1.10;;;;;;;18.90;66.98;98647.34;7309396;19;129607;-67
2022/12/29 06:44:13;;;;;;;13.70;1.30;;;;;;;18.87;66.99;98648.47;7312111;19;129055;-66
2022/12/29 06:46:38;;;;;;;13.18;1.30;;;;;;;18.85;66.72;98641.75;7308958;19;129090;-66
2022/12/29 06:49:04;;;;;;;43.33;4.38;;;;;;;18.82;66.54;98644.66;7309907;19;129445;-65
2022/12/29 06:51:29;;;;;;;13.15;1.50;;;;;;;18.75;66.23;98638.38;7309381;19;129626;-66
2022/12/29 06:53:54;;;;;;;17.30;1.88;;;;;;;18.76;66.43;98653.84;7311016;19;128767;-67
2022/12/29 06:56:19;;;;;;;13.05;1.38;;;;;;;18.76;66.44;98648.63;7309364;19;129273;-66
2022/12/29 06:58:45;;;;;;;39.70;3.42;;;;;;;18.70;66.64;98656.19;7310928;19;129826;-67
2022/12/29 07:01:10;;;;;;;10.75;1.38;;;;;;;18.57;66.28;98646.13;7309355;19;130071;-67
2022/12/29 07:03:35;;;;;;;12.95;1.23;;;;;;;18.67;66.88;98656.50;7310194;19;129068;-65
2022/12/29 07:06:01;;;;;;;21.77;1.98;;;;;;;18.66;67.22;98655.66;7308693;19;129127;-65
2022/12/29 07:08:26;;;;;;;33.38;2.60;;;;;;;18.70;67.25;98651.81;7313576;19;129912;-67
2022/12/29 07:10:52;;;;;;;8.10;1.10;;;;;;;18.69;67.18;98657.97;7310788;19;129792;-65
2022/12/29 07:13:17;;;;;;;15.43;1.52;;;;;;;18.67;66.64;98657.31;7308346;19;129454;-67
2022/12/29 07:15:43;;;;;;;35.58;3.30;;;;;;;18.58;66.90;98652.13;7306733;19;129453;-67
2022/12/29 07:18:08;;;;;;;27.05;2.30;;;;;;;18.68;66.72;98664.16;7310589;19;129066;-65
2022/12/29 07:20:33;;;;;;;17.52;1.65;;;;;;;18.70;67.03;98671.81;7308999;19;129186;-67
2022/12/29 07:22:59;;;;;;;21.88;2.15;;;;;;;18.71;66.72;98673.47;7310834;19;129819;-65
2022/12/29 07:25:24;;;;;;;36.20;3.30;;;;;;;18.73;67.44;98672.34;7308938;19;129114;-65
2022/12/29 07:27:49;;;;;;;19.17;1.67;;;;;;;18.72;66.96;98670.72;7310481;19;129499;-67
2022/12/29 07:30:15;;;;;;;16.23;1.45;;;;;;;18.75;66.96;98680.03;7309937;19;129596;-67
2022/12/29 07:32:41;;;;;;;14.48;1.38;;;;;;;18.76;67.04;98682.47;7306926;19;130044;-65
2022/12/29 07:35:07;;;;;;;58.35;5.70;;;;;;;18.76;66.76;98682.47;7308620;19;129467;-67
2022/12/29 07:37:33;;;;;;;24.58;2.28;;;;;;;18.81;67.31;98684.66;7310253;19;129769;-67
2022/12/29 07:39:58;;;;;;;21.40;2.23;;;;;;;18.81;66.89;98693.28;7308709;19;130358;-66
2022/12/29 07:42:23;;;;;;;19.52;1.83;;;;;;;18.80;66.27;98668.22;7306658;19;130128;-65
2022/12/29 07:44:49;;;;;;;26.35;2.45;;;;;;;18.80;67.09;98647.41;7315003;19;128906;-66
2022/12/29 07:47:14;;;;;;;17.98;1.83;;;;;;;18.79;66.81;98652.75;7315236;19;130373;-67
2022/12/29 07:49:39;;;;;;;12.77;1.35;;;;;;;18.81;66.97;98662.03;7315338;19;129812;-67
2022/12/29 07:52:04;;;;;;;22.02;2.10;;;;;;;18.81;66.44;98664.66;7311812;19;129225;-67
2022/12/29 07:54:30;;;;;;;28.10;2.50;;;;;;;18.83;66.82;98667.09;7316795;19;130365;-66
2022/12/29 07:56:55;;;;;;;8.30;1.00;;;;;;;18.83;66.50;98667.94;7314490;19;129314;-68
2022/12/29 07:59:20;;;;;;;30.75;3.05;;;;;;;18.82;66.74;98668.91;7314487;19;129122;-67
2022/12/29 08:01:46;;;;;;;26.33;2.22;;;;;;;18.81;66.80;98664.66;7313925;19;129261;-66
2022/12/29 08:04:12;;;;;;;21.85;2.03;;;;;;;18.81;66.70;98667.25;7315821;19;129638;-66
2022/12/29 08:06:37;;;;;;;16.10;1.80;;;;;;;18.80;66.31;98668.22;7313735;19;129429;-65
2022/12/29 08:09:03;;;;;;;22.75;2.40;;;;;;;18.82;66.52;98673.28;7314426;19;129287;-67
2022/12/29 08:11:28;;;;;;;31.60;2.85;;;;;;;18.82;66.98;98681.94;7313852;19;129595;-66
2022/12/29 08:13:54;;;;;;;18.75;1.95;;;;;;;18.82;66.07;98687.13;7313215;19;129369;-68
2022/12/29 08:16:19;;;;;;;16.98;1.70;;;;;;;18.82;66.14;98692.34;7313027;19;128989;-65
2022/12/29 08:18:44;;;;;;;16.33;1.58;;;;;;;18.80;66.39;98688.22;7314731;19;129009;-66
2022/12/29 08:21:10;;;;;;;41.47;3.92;;;;;;;18.81;66.47;98689.84;7312588;19;129156;-65
2022/12/29 08:23:36;;;;;;;16.67;1.83;;;;;;;18.81;66.97;98695.06;7316102;19;128873;-65
2022/12/29 08:26:04;;;;;;;13.18;1.33;;;;;;;18.70;66.44;98677.03;7312882;19;129007;-67
2022/12/29 08:28:30;;;;;;;17.98;1.88;;;;;;;18.80;66.57;98704.69;7314588;19;129507;-65
2022/12/29 08:31:00;;;;;;;33.83;3.10;;;;;;;18.80;66.81;98709.06;7313018;19;129681;-68
2022/12/29 08:33:26;;;;;;;19.38;2.05;;;;;;;18.80;66.26;98702.06;7312142;19;129243;-67
2022/12/29 08:35:52;;;;;;;16.90;1.97;;;;;;;18.80;66.59;98694.25;7313504;19;129688;-65
2022/12/29 08:38:17;;;;;;;13.32;1.33;;;;;;;18.67;66.18;98675.53;7314163;19;129393;-66
2022/12/29 08:40:43;;;;;;;32.80;2.80;;;;;;;18.79;66.71;98692.59;7312284;19;130920;-66
2022/12/29 08:43:09;;;;;;;17.92;1.65;;;;;;;18.79;66.57;98703.03;7315418;19;129464;-65
2022/12/29 08:45:34;;;;;;;27.63;2.65;;;;;;;18.80;66.37;98720.31;7312474;19;129289;-66
2022/12/29 08:47:59;;;;;;;32.30;2.72;;;;;;;18.78;66.20;98717.00;7315351;19;129236;-68
2022/12/29 08:50:25;;;;;;;42.80;3.58;;;;;;;18.80;66.38;98722.91;7314028;19;130064;-65
2022/12/29 08:52:50;;;;;;;10.60;0.95;;;;;;;18.68;65.33;98726.63;7313839;19;128939;-66
2022/12/29 08:55:15;;;;;;;10.88;1.13;;;;;;;18.49;66.02;98711.09;7311401;19;129055;-67
2022/12/29 08:57:41;;;;;;;24.20;2.15;;;;;;;18.31;65.85;98701.50;7312862;19;129568;-65
2022/12/29 09:00:07;;;;;;;38.97;3.42;;;;;;;18.47;66.46;98718.22;7313948;19;129473;-67
2022/12/29 09:02:32;;;;;;;11.05;1.23;;;;;;;18.49;65.73;98711.09;7311789;19;129326;-66
2022/12/29 09:04:58;;;;;;;44.15;5.00;;;;;;;18.49;65.69;98707.66;7311853;19;128995;-66
2022/12/29 09:07:24;;;;;;;29.55;2.65;;;;;;;18.56;66.05;98712.16;7312497;19;129597;-67
2022/12/29 09:09:49;;;;;;;20.15;1.70;;;;;;;18.59;65.22;98709.28;7314139;19;129482;-68
2022/12/29 09:12:17;;;;;;;7.30;0.77;;;;;;;18.68;64.49;98716.22;7311346;19;129447;-65
2022/12/29 09:14:44;;;;;;;5.65;0.70;;;;;;;18.69;65.01;98715.25;7314389;19;129499;-65
2022/12/29 09:19:53;;;;;;;30.65;2.78;;;;;;;18.73;64.27;98708.81;7312692;19;129122;-67
2022/12/29 09:22:19;;;;;;;23.90;2.13;;;;;;;18.73;65.02;98707.97;7313004;19;129083;-66
2022/12/29 09:24:44;;;;;;;4.10;0.55;;;;;;;18.71;64.71;98705.53;7314333;19;128994;-66
2022/12/29 09:27:09;;;;;;;14.82;1.40;;;;;;;18.69;65.60;98706.63;7312508;19;129608;-67
2022/12/29 09:29:35;;;;;;;36.58;3.30;;;;;;;18.66;64.78;98712.94;7313443;19;129111;-68
2022/12/29 09:32:00;;;;;;;21.17;2.17;;;;;;;18.67;65.31;98703.34;7311535;19;129105;-67
2022/12/29 09:34:25;;;;;;;9.90;1.13;;;;;;;18.65;65.76;98700.91;7313359;19;129466;-65
2022/12/29 09:36:51;;;;;;;11.88;1.17;;;;;;;18.62;65.37;98698.59;7311444;19;129256;-66
2022/12/29 09:39:16;;;;;;;32.90;2.78;;;;;;;18.63;66.57;98701.97;7314654;19;129021;-67
2022/12/29 09:41:52;;;;;;;17.88;1.80;;;;;;;18.65;66.40;98700.06;7312288;19;129431;-65
2022/12/29 09:44:29;;;;;;;13.07;1.35;;;;;;;18.56;66.65;98690.53;7312955;19;129189;-67
2022/12/29 09:46:56;;;;;;;;;;;;;;;18.69;67.52;98697.03;7312129;19;129762;-65
2022/12/29 09:49:27;;;;;;;11.25;1.15;;;;;;;18.67;67.05;98701.56;7313303;19;129472;-68
2022/12/29 09:52:03;;;;;;;32.30;2.78;;;;;;;18.70;67.07;98706.50;7309645;19;130232;-67
2022/12/29 09:54:52;;;;;;;35.85;3.13;;;;;;;18.69;66.94;98696.22;7313890;19;129283;-67
2022/12/29 09:57:45;;;;;;;23.20;2.05;;;;;;;18.75;67.02;98699.06;7312004;19;129148;-66
2022/12/29 10:00:17;;;;;;;36.28;3.35;;;;;;;18.76;67.02;98692.91;7310739;19;129291;-65
2022/12/29 10:02:52;;;;;;;15.90;1.58;;;;;;;18.76;67.16;98698.09;7313037;19;128845;-65
2022/12/29 10:05:32;;;;;;;13.45;1.48;;;;;;;18.80;66.84;98691.66;7311042;19;129575;-67
2022/12/29 10:08:18;;;;;;;18.85;1.80;;;;;;;18.79;66.97;98686.59;7310699;19;129692;-65
2022/12/29 10:11:12;;;;;;;9.57;0.98;;;;;;;18.76;67.42;98679.06;7310660;19;129089;-65
2022/12/29 10:13:55;;;;;;;18.17;2.05;;;;;;;18.78;66.93;98669.31;7309203;19;129100;-65
2022/12/29 10:16:42;;;;;;;13.85;1.40;;;;;;;18.82;66.72;98681.09;7310341;19;128978;-65
2022/12/29 10:19:13;;;;;;;15.50;1.80;;;;;;;18.73;67.13;98674.13;7310886;19;129579;-65
2022/12/29 10:21:41;;;;;;;5.00;0.70;;;;;;;18.83;66.07;98688.75;7310406;19;129302;-67
2022/12/29 10:24:11;;;;;;;34.05;3.05;;;;;;;18.81;66.87;98682.88;7312250;19;129807;-66
2022/12/29 10:26:42;;;;;;;26.05;2.15;;;;;;;18.78;66.86;98675.34;7310521;19;129592;-67
2022/12/29 10:29:37;;;;;;;24.73;2.05;;;;;;;18.76;66.68;98682.47;7313425;19;129125;-68
2022/12/29 10:32:29;;;;;;;8.20;1.10;;;;;;;18.77;67.05;98685.91;7308789;19;129473;-64
2022/12/29 10:35:04;;;;;;;49.55;4.50;;;;;;;18.75;67.19;98680.84;7311372;19;129258;-67
2022/12/29 10:37:51;;;;;;;18.50;1.85;;;;;;;18.76;67.30;98677.28;7311873;19;129619;-68
2022/12/29 10:41:02;;;;;;;18.30;1.55;;;;;;;18.75;67.50;98670.44;7311744;19;129763;-67
2022/12/29 10:43:35;;;;;;;27.15;2.35;;;;;;;18.72;66.57;98670.72;7311222;19;128994;-67
2022/12/29 10:46:10;;;;;;;19.23;1.98;;;;;;;18.72;67.63;98677.72;7310245;19;129630;-65
2022/12/29 10:48:36;;;;;;;16.70;1.55;;;;;;;18.67;66.97;98667.75;7311420;19;129446;-68
2022/12/29 10:51:04;;;;;;;16.33;1.77;;;;;;;18.68;66.91;98669.38;7309194;19;129340;-68
2022/12/29 10:53:43;;;;;;;27.42;2.60;;;;;;;18.69;67.16;98655.38;7309099;19;129841;-68
2022/12/29 10:56:41;;;;;;;31.65;2.65;;;;;;;18.67;67.32;98652.13;7306907;19;129610;-67
2022/12/29 10:59:20;;;;;;;22.90;2.33;;;;;;;18.65;67.64;98648.00;7308062;19;131897;-67
2022/12/29 11:02:09;;;;;;;32.35;2.85;;;;;;;18.53;67.43;98626.53;7307168;19;133092;-65
2022/12/29 11:04:50;;;;;;;28.88;2.58;;;;;;;18.61;67.78;98642.25;7307857;19;129065;-67
2022/12/29 11:07:18;;;;;;;34.55;2.97;;;;;;;18.58;67.54;98637.34;7309642;19;129414;-67
2022/12/29 11:09:45;;;;;;;19.33;1.80;;;;;;;18.58;67.09;98631.31;7310358;19;129034;-67
2022/12/29 11:12:26;;;;;;;14.80;1.60;;;;;;;18.60;67.25;98632.81;7307343;19;129310;-67
2022/12/29 11:15:02;;;;;;;21.08;2.28;;;;;;;18.64;67.60;98636.78;7309052;19;128839;-68
2022/12/29 11:17:27;;;;;;;16.25;1.50;;;;;;;18.63;67.28;98629.94;7310144;19;129689;-66
2022/12/29 11:19:52;;;;;;;58.47;5.80;;;;;;;18.63;67.30;98623.88;7316644;19;129564;-65
2022/12/29 11:22:23;;;;;;;15.57;1.52;;;;;;;18.64;67.11;98630.75;7312293;19;132965;-67
2022/12/29 11:24:50;;;;;;;20.00;2.00;;;;;;;18.66;67.09;98624.44;7317287;19;129535;-67
2022/12/29 11:27:24;;;;;;;12.95;1.30;;;;;;;18.68;67.63;98638.13;7315139;19;129436;-67
2022/12/29 11:29:52;;;;;;;26.42;2.38;;;;;;;18.57;66.91;98614.06;7316448;19;130579;-67
2022/12/29 11:32:18;;;;;;;17.73;1.70;;;;;;;18.68;67.50;98629.47;7314053;19;129456;-67
2022/12/29 11:34:44;;;;;;;16.15;1.85;;;;;;;18.71;67.05;98632.63;7316835;19;129306;-68
2022/12/29 11:37:19;;;;;;;11.73;1.17;;;;;;;18.72;67.17;98638.66;7314730;19;129117;-66
2022/12/29 11:39:50;;;;;;;2.67;0.40;;;;;;;18.72;66.80;98634.28;7315972;19;129580;-65
2022/12/29 11:42:19;;;;;;;28.95;2.67;;;;;;;18.71;67.10;98631.81;7314338;19;129747;-67
2022/12/29 11:44:50;;;;;;;15.32;1.55;;;;;;;18.70;67.34;98633.59;7316836;19;129072;-65
2022/12/29 11:47:30;;;;;;;12.90;1.42;;;;;;;18.73;66.80;98624.66;7316440;19;129142;-65
2022/12/29 11:50:01;;;;;;;19.73;2.13;;;;;;;18.72;66.91;98631.69;7316396;19;129403;-65
2022/12/29 11:52:33;;;;;;;20.85;2.00;;;;;;;18.67;67.24;98620.88;7313260;19;129979;-67
2022/12/29 11:55:00;;;;;;;47.42;5.13;;;;;;;18.73;67.03;98640.28;7315212;19;129549;-68
2022/12/29 11:57:27;;;;;;;38.03;3.38;;;;;;;18.72;66.45;98636.88;7315532;19;128965;-66
2022/12/29 11:59:55;;;;;;;20.02;2.33;;;;;;;18.73;66.46;98632.47;7315584;19;129522;-68
2022/12/29 12:02:36;;;;;;;16.02;1.70;;;;;;;18.71;66.12;98637.84;7312655;19;129223;-68